Latest  Newer  Older  Last 2 hours animation  Current image  Latest image  Summary per 24h (testing)  Summary per 7d (testing) 
Cloud coverage sat images  Infrared sat images 
Real-time lightning map

All time is UTC (add 2 hours in wintertime, 3 hours in DST for Latvia local time)

2019/01/20 13:20 EVRA 201320Z 29006KT 250V330 9999 VCSH SCT027CB BKN037 M01/M05 Q1011 R36/590295 NOSIG
2019/01/20 13:20 EVLA 201320Z AUTO 31006KT 290V350 9999 SCT038/// 01/M06 Q1013
2019/01/20 13:20 EVVA 201320Z AUTO 32011KT 9999 FEW031 SCT043 00/M06 Q1013
2019/01/20 13:20 EYKA 201320Z 31003KT 260V340 3000 SN BR BKN031 OVC038 M02/M03 Q1013 R08/190095
2019/01/20 13:20 EYPA 201320Z 34005KT 300V030 9999 FEW034 M01/M05 Q1014 R01/2///95
2019/01/20 13:20 EYSA 201320Z 26007KT CAVOK M03/M03 Q1012 R14L/29//95 BLU NOSIG
2019/01/20 13:20 EYVI 201320Z 25010KT 1500 R19/1300VP2000U SN OVC006 M02/M03 Q1011 R19/2///95 NOSIG
2019/01/20 12:50 EEKA 201250Z 33013KT 9999 BKN023 M01/M06 Q1010
2019/01/20 13:08 EEKE 201308Z 36013KT 9999 2600NE SHSN FEW006 SCT038CB M01/M03 Q1011 R17/490593
2019/01/20 12:50 EEPU 201250Z 33006KT 290V350 9999 SCT021 M04/M08 Q1009
2019/01/20 13:20 EETN 201320Z 32008KT 290V350 9999 FEW010 BKN019 M06/M09 Q1008 R08/820295 NOSIG
2019/01/20 12:50 EETU 201250Z AUTO 29009KT 9999 NCD M04/M10 Q1007
   RIGA AIRPORT     EVRA               56 55N  023 58E   10   X     T          6 LV
   LIEPAJA INTL     EVLA        26406  56 31N  021 06E    4   X                8 LV
   VENTPILS         EVVA               57 21N  021 33E    6   X                8 LV
   KAUNAS           EYKA               54 54N  023 55E   77   X     T          6 LT
   PALANGA INTL     EYPA               55 55N  021 03E   10   X                6 LT
   SIAULIAI INTL    EYSA               55 54N  023 24E  135   X     T          6 LT
   VILNIUS INTL     EYVI        26730  54 38N  025 17E  197   X     T          6 LT
   KARDLA           EEKA        26116  58 59N  022 50E    4   X                8 EE
   KURESSAARE       EEKE               58 14N  022 31E    4   X                8 EE
   PARNU            EEPU               58 25N  024 28E   14   X                8 EE
   TALLINN          EETN        26038  59 24N  024 49E   40   X     T          8 EE
   TARTU            EETU               58 19N  026 41E   67   X                8 EE

rain/snow radar image from www.meteo.lv and METAR data from weather.noaa.gov